Time;durP1;ratioP1;P1;durP2;ratioP2;P2;SDS_P1;SDS_P2;PMS_P1;PMS_P2;Temp;Humidity;BMP_temperature;BMP_pressure;BME280_temperature;BME280_humidity;BME280_pressure;Samples;Min_cycle;Max_cycle;Signal;HPM_P1;HPM_P2
2022/06/16 00:00:33;;;;;;;7.22;3.50;;;;;;;18.41;60.47;101546.78;4945407;28;20041;-71
2022/06/16 00:02:58;;;;;;;6.28;3.67;;;;;;;18.40;60.37;101539.06;4940863;28;20134;-71
2022/06/16 00:05:28;;;;;;;11.02;3.00;;;;;;;18.35;60.19;101536.22;4947864;28;20047;-71
2022/06/16 00:07:54;;;;;;;7.32;2.80;;;;;;;18.21;60.52;101540.53;4943464;28;20118;-71
2022/06/16 00:10:20;;;;;;;7.57;3.17;;;;;;;18.16;60.50;101538.50;4945626;28;20035;-71
2022/06/16 00:12:46;;;;;;;6.10;2.85;;;;;;;18.14;60.75;101531.78;4949129;28;20262;-71
2022/06/16 00:15:15;;;;;;;11.50;3.88;;;;;;;18.10;61.00;101533.97;4947507;28;20674;-71
2022/06/16 00:17:41;;;;;;;7.07;2.75;;;;;;;17.99;61.03;101523.97;4949656;28;20521;-71
2022/06/16 00:20:07;;;;;;;5.72;2.90;;;;;;;17.96;60.84;101530.41;4947419;28;20046;-71
2022/06/16 00:22:33;;;;;;;8.70;2.95;;;;;;;17.99;60.35;101529.22;4949273;28;20049;-72
2022/06/16 00:24:59;;;;;;;13.27;3.42;;;;;;;18.00;60.23;101534.28;4946904;28;20557;-71
2022/06/16 00:27:25;;;;;;;9.85;3.17;;;;;;;17.99;60.59;101537.09;4946128;28;20035;-71
2022/06/16 00:29:50;;;;;;;6.57;3.17;;;;;;;18.03;60.79;101535.75;4947616;28;20035;-71
2022/06/16 00:32:17;;;;;;;7.90;3.33;;;;;;;17.96;60.68;101535.66;4945633;28;20446;-71
2022/06/16 00:34:43;;;;;;;8.48;3.67;;;;;;;17.84;60.73;101543.22;4947909;28;20444;-71
2022/06/16 00:37:08;;;;;;;8.43;3.50;;;;;;;17.83;60.44;101544.19;4943671;28;20031;-71
2022/06/16 00:39:34;;;;;;;7.93;3.35;;;;;;;17.81;60.77;101543.56;4946636;28;20035;-71
2022/06/16 00:42:11;;;;;;;6.85;3.33;;;;;;;17.82;61.18;101544.34;4946202;28;20035;-71
2022/06/16 00:44:41;;;;;;;8.63;2.58;;;;;;;17.79;60.53;101542.94;4946991;28;20122;-71
2022/06/16 00:47:07;;;;;;;4.72;2.92;;;;;;;17.72;60.35;101528.94;4946520;28;20048;-71
2022/06/16 00:49:36;;;;;;;7.53;3.10;;;;;;;17.70;60.76;101541.41;4947830;28;20383;-71
2022/06/16 00:52:08;;;;;;;9.35;3.65;;;;;;;17.56;61.45;101544.91;4939917;28;20082;-71
2022/06/16 00:54:39;;;;;;;10.95;3.38;;;;;;;17.54;61.07;101545.09;4945536;28;20042;-71
2022/06/16 00:57:13;;;;;;;6.78;3.08;;;;;;;17.46;60.98;101537.31;4953043;28;20123;-71
2022/06/16 00:59:40;;;;;;;8.25;3.33;;;;;;;17.46;61.06;101537.31;4961402;28;20027;-71
2022/06/16 01:02:08;;;;;;;8.55;3.45;;;;;;;17.34;60.81;101542.22;4948247;28;20043;-71
2022/06/16 01:04:53;;;;;;;7.15;2.92;;;;;;;17.37;60.71;101535.81;4951819;28;20035;-71
2022/06/16 01:07:30;;;;;;;6.22;3.08;;;;;;;17.36;60.75;101532.34;4942911;28;20413;-71
2022/06/16 01:09:57;;;;;;;10.63;3.85;;;;;;;17.41;60.33;101531.81;4944819;28;20031;-71
2022/06/16 01:16:15;;;;;;;5.80;3.05;;;;;;;17.41;60.12;101539.69;4945027;28;20058;-71
2022/06/16 01:18:52;;;;;;;8.32;2.67;;;;;;;17.37;60.06;101544.47;4958713;28;20054;-71
2022/06/16 01:21:41;;;;;;;6.47;2.60;;;;;;;17.40;60.00;101551.94;4946517;28;20027;-71
2022/06/16 01:24:23;;;;;;;7.18;2.92;;;;;;;17.38;59.64;101551.31;4944502;28;20178;-71
2022/06/16 01:27:12;;;;;;;5.20;2.80;;;;;;;17.36;60.11;101548.06;4947121;28;20047;-71
2022/06/16 01:29:47;;;;;;;9.10;3.60;;;;;;;17.28;58.18;101559.47;4951749;28;20062;-71
2022/06/16 01:32:26;;;;;;;8.18;2.90;;;;;;;17.25;58.64;101564.25;4949147;28;20605;-71
2022/06/16 01:35:19;;;;;;;12.05;2.95;;;;;;;17.20;59.20;101564.81;4930726;28;20549;-72
2022/06/16 01:38:03;;;;;;;8.48;3.05;;;;;;;17.12;59.75;101565.72;4946931;28;20032;-71
2022/06/16 01:40:32;;;;;;;8.63;3.60;;;;;;;17.11;59.89;101569.31;4948991;28;20133;-71
2022/06/16 01:43:25;;;;;;;5.82;3.17;;;;;;;17.17;59.35;101574.84;4933345;28;20035;-71
2022/06/16 01:46:01;;;;;;;10.48;4.00;;;;;;;17.17;58.87;101570.41;4949923;28;20059;-71
2022/06/16 01:48:29;;;;;;;8.38;3.65;;;;;;;17.12;57.92;101578.00;4963204;28;20684;-71
2022/06/16 01:51:13;;;;;;;9.07;3.38;;;;;;;17.03;58.12;101568.63;4930983;28;20176;-71
2022/06/16 01:54:17;;;;;;;6.85;2.90;;;;;;;17.08;58.06;101574.94;4948930;28;20114;-71
2022/06/16 01:56:52;;;;;;;5.93;2.80;;;;;;;17.01;58.32;101579.28;4947098;28;20023;-71
2022/06/16 01:59:24;;;;;;;9.02;2.92;;;;;;;17.02;58.44;101575.63;4931040;29;20046;-71
2022/06/16 02:01:56;;;;;;;6.35;2.97;;;;;;;17.02;58.41;101574.84;4948732;28;20126;-71
2022/06/16 02:04:28;;;;;;;9.85;3.33;;;;;;;17.00;58.13;101576.81;4948675;28;20039;-71
2022/06/16 02:06:59;;;;;;;14.02;3.35;;;;;;;16.95;58.15;101584.41;4946420;28;20027;-71
2022/06/16 02:09:30;;;;;;;9.23;3.58;;;;;;;16.93;58.15;101588.03;4944296;28;20054;-71
2022/06/16 02:12:00;;;;;;;13.70;3.80;;;;;;;16.85;58.34;101588.09;4929135;28;20086;-71
2022/06/16 02:14:46;;;;;;;10.48;3.55;;;;;;;16.86;59.62;101602.81;4944924;28;20032;-71
2022/06/16 02:17:21;;;;;;;12.40;3.05;;;;;;;16.83;59.53;101594.50;4944345;28;20113;-71
2022/06/16 02:19:47;;;;;;;7.68;3.40;;;;;;;16.84;58.15;101594.34;4949379;28;20035;-71
2022/06/16 02:22:12;;;;;;;5.97;3.03;;;;;;;16.80;58.86;101597.44;4947251;28;20755;-71
2022/06/16 02:24:38;;;;;;;8.07;2.63;;;;;;;16.75;59.22;101590.13;4904465;28;1129170;-71
2022/06/16 02:27:05;;;;;;;8.23;3.03;;;;;;;16.71;59.32;101587.03;4945324;28;20024;-71
2022/06/16 02:29:37;;;;;;;9.85;3.15;;;;;;;16.67;59.68;101592.81;4929591;28;20358;-71
2022/06/16 02:32:19;;;;;;;11.10;2.65;;;;;;;16.67;59.97;101601.50;4944363;28;20039;-71
2022/06/16 02:35:14;;;;;;;8.67;2.57;;;;;;;16.65;60.40;101608.72;4961748;28;20302;-71
2022/06/16 02:38:04;;;;;;;6.45;3.65;;;;;;;16.62;59.80;101590.72;4894894;29;20532;-71
2022/06/16 02:40:56;;;;;;;6.03;2.28;;;;;;;16.50;58.99;101605.22;4961212;28;20881;-71
2022/06/16 02:43:57;;;;;;;8.13;3.00;;;;;;;16.41;59.58;101587.97;4961224;28;20057;-71
2022/06/16 02:46:36;;;;;;;4.95;2.60;;;;;;;16.39;59.91;101593.38;4947365;28;20035;-71
2022/06/16 02:49:10;;;;;;;8.88;3.00;;;;;;;16.28;59.39;101596.38;4943175;28;20043;-71
2022/06/16 02:52:17;;;;;;;7.55;2.40;;;;;;;16.27;59.34;101590.31;4956488;28;20058;-71
2022/06/16 02:55:00;;;;;;;7.90;2.67;;;;;;;16.23;59.40;101583.81;4929931;28;20042;-71
2022/06/16 02:57:44;;;;;;;5.68;2.70;;;;;;;16.28;59.55;101589.34;4946592;28;20518;-71
2022/06/16 03:00:22;;;;;;;8.85;2.92;;;;;;;16.30;59.99;101595.22;4948942;28;20039;-71
2022/06/16 03:02:48;;;;;;;9.50;2.95;;;;;;;16.29;59.61;101596.22;4947849;28;20046;-71
2022/06/16 03:05:15;;;;;;;5.07;2.60;;;;;;;16.30;59.40;101604.88;4946913;28;20038;-71
2022/06/16 03:07:44;;;;;;;7.88;2.50;;;;;;;16.31;59.52;101596.03;4944488;28;20494;-71
2022/06/16 03:13:07;;;;;;;7.70;3.05;;;;;;;16.22;58.87;101616.22;4945601;28;20090;-71
2022/06/16 03:15:33;;;;;;;4.65;2.40;;;;;;;16.23;58.95;101614.41;4947410;28;20342;-71
2022/06/16 03:17:58;;;;;;;5.18;2.83;;;;;;;16.21;59.23;101617.19;4947331;28;20039;-71
2022/06/16 03:20:24;;;;;;;5.57;2.78;;;;;;;16.23;59.65;101624.88;4946056;28;20047;-71
2022/06/16 03:22:49;;;;;;;7.03;3.42;;;;;;;16.18;59.92;101629.81;4945042;28;20019;-71
2022/06/16 03:25:16;;;;;;;5.97;2.55;;;;;;;16.11;60.44;101635.72;4945205;28;20043;-71
2022/06/16 03:27:41;;;;;;;5.70;2.83;;;;;;;16.09;60.96;101645.56;4959443;28;20036;-71
2022/06/16 03:30:08;;;;;;;8.95;3.22;;;;;;;16.05;61.30;101648.66;4949136;28;20039;-71
2022/06/16 03:32:34;;;;;;;7.20;3.17;;;;;;;16.00;61.33;101645.78;4945849;28;20118;-71
2022/06/16 03:35:00;;;;;;;7.63;2.90;;;;;;;15.94;61.19;101648.06;4946784;28;20038;-71
2022/06/16 03:37:28;;;;;;;12.68;3.72;;;;;;;15.88;61.30;101638.31;4946395;28;20481;-71
2022/06/16 03:39:57;;;;;;;10.45;3.45;;;;;;;15.82;61.62;101648.63;4947649;28;20122;-71
2022/06/16 03:42:23;;;;;;;6.75;3.75;;;;;;;15.79;61.40;101656.81;4946431;28;20046;-71
2022/06/16 03:44:51;;;;;;;8.43;2.97;;;;;;;15.73;61.57;101651.28;4947426;28;20038;-71
2022/06/16 03:47:17;;;;;;;10.45;3.63;;;;;;;15.68;61.25;101657.97;4946665;28;20035;-71
2022/06/16 03:49:43;;;;;;;8.65;3.38;;;;;;;15.65;61.85;101663.53;4929419;28;20038;-71
2022/06/16 03:52:09;;;;;;;5.95;3.30;;;;;;;15.56;62.38;101668.78;4959932;28;20031;-71
2022/06/16 03:54:37;;;;;;;5.45;3.08;;;;;;;15.55;62.67;101668.94;4945573;28;20583;-71
2022/06/16 03:57:07;;;;;;;8.70;3.60;;;;;;;15.49;62.95;101662.59;4947531;28;20219;-72
2022/06/16 03:59:32;;;;;;;7.13;3.55;;;;;;;15.40;62.98;101660.97;4943170;28;20157;-71
2022/06/16 04:02:05;;;;;;;8.63;3.47;;;;;;;15.33;62.87;101667.84;4958862;28;20118;-71
2022/06/16 04:04:35;;;;;;;7.40;3.05;;;;;;;15.20;62.58;101665.75;4930798;28;20066;-70
2022/06/16 04:07:03;;;;;;;7.80;3.55;;;;;;;15.17;62.56;101668.69;4943788;28;20035;-71
2022/06/16 04:09:29;;;;;;;12.27;4.18;;;;;;;15.09;62.76;101673.94;4945335;28;20512;-71
2022/06/16 04:11:59;;;;;;;7.18;3.65;;;;;;;14.99;62.96;101668.84;4945383;28;20669;-71
2022/06/16 04:14:24;;;;;;;7.38;3.30;;;;;;;14.99;63.11;101684.53;4943616;28;20035;-71
2022/06/16 04:16:56;;;;;;;8.82;4.13;;;;;;;15.01;63.38;101686.97;4939433;28;20039;-71
2022/06/16 04:19:30;;;;;;;6.82;3.35;;;;;;;14.98;63.43;101683.72;4957179;28;20093;-71
2022/06/16 04:21:56;;;;;;;8.50;3.60;;;;;;;14.93;63.41;101683.38;4927892;28;20039;-71
2022/06/16 04:24:33;;;;;;;7.70;3.63;;;;;;;14.94;63.41;101685.03;4944032;28;20071;-71
2022/06/16 04:26:59;;;;;;;9.05;3.10;;;;;;;14.92;63.31;101683.56;4940031;28;20038;-71
2022/06/16 04:29:25;;;;;;;7.78;3.58;;;;;;;14.89;63.90;101684.69;4929193;28;20039;-71
2022/06/16 04:31:52;;;;;;;6.72;3.53;;;;;;;14.89;64.01;101684.69;4946458;28;20023;-71
2022/06/16 04:34:18;;;;;;;7.35;3.40;;;;;;;14.87;64.17;101686.66;4944201;28;20031;-71
2022/06/16 04:36:45;;;;;;;5.13;3.05;;;;;;;14.96;64.21;101690.91;4943870;28;20042;-71
2022/06/16 04:39:14;;;;;;;4.75;3.05;;;;;;;15.02;64.18;101696.47;4942862;28;20152;-71
2022/06/16 04:41:43;;;;;;;7.75;4.07;;;;;;;15.04;63.88;101703.13;4946785;28;20035;-71
2022/06/16 04:44:12;;;;;;;6.05;3.35;;;;;;;15.10;64.23;101699.06;4944317;28;20034;-71
2022/06/16 04:46:38;;;;;;;11.65;3.30;;;;;;;15.14;63.67;101702.97;4947172;28;20118;-71
2022/06/16 04:49:04;;;;;;;5.65;3.30;;;;;;;15.21;63.88;101710.97;4947842;28;20027;-71
2022/06/16 04:51:39;;;;;;;6.53;4.05;;;;;;;15.25;63.81;101718.31;4934996;28;20063;-71
2022/06/16 04:54:08;;;;;;;4.97;2.90;;;;;;;15.29;64.17;101721.41;4948306;28;20545;-71
2022/06/16 04:56:54;;;;;;;6.88;3.13;;;;;;;15.29;63.47;101717.00;4936272;28;20039;-71
2022/06/16 04:59:41;;;;;;;10.63;3.67;;;;;;;15.32;63.36;101716.69;4946021;28;20031;-71
2022/06/16 05:02:22;;;;;;;5.03;3.10;;;;;;;15.34;63.22;101725.16;4929612;28;20032;-70
2022/06/16 05:04:55;;;;;;;6.68;3.22;;;;;;;15.44;63.13;101724.19;4948934;28;20636;-71
2022/06/16 05:07:47;;;;;;;6.22;2.90;;;;;;;15.48;62.94;101736.78;4934051;28;20059;-71
2022/06/16 05:10:31;;;;;;;7.28;3.35;;;;;;;15.57;62.86;101743.59;4949869;28;20079;-71
2022/06/16 05:13:19;;;;;;;9.70;3.58;;;;;;;15.71;62.57;101739.50;4949167;28;20043;-71
2022/06/16 05:15:58;;;;;;;8.75;3.83;;;;;;;15.77;62.43;101749.31;4949921;28;20531;-71
2022/06/16 05:18:30;;;;;;;8.35;4.35;;;;;;;15.81;62.53;101749.00;4949001;28;20432;-71
2022/06/16 05:21:19;;;;;;;8.80;3.78;;;;;;;15.87;60.79;101756.97;4943286;28;20079;-71
2022/06/16 05:24:20;;;;;;;7.40;3.90;;;;;;;16.05;61.00;101750.69;4928842;29;20035;-71
2022/06/16 05:27:24;;;;;;;6.32;3.20;;;;;;;16.22;60.37;101760.13;4946282;28;20039;-70
2022/06/16 05:30:16;;;;;;;6.60;3.38;;;;;;;16.34;59.39;101761.38;4935444;28;20047;-72
2022/06/16 05:32:56;;;;;;;7.97;3.22;;;;;;;16.53;59.81;101772.41;4962300;28;20126;-71
2022/06/16 05:35:33;;;;;;;8.35;3.47;;;;;;;16.59;58.38;101770.91;4945731;28;20047;-70
2022/06/16 05:38:13;;;;;;;6.75;3.60;;;;;;;16.75;57.75;101765.59;4934962;28;20107;-70
2022/06/16 05:40:44;;;;;;;10.52;3.75;;;;;;;16.92;57.44;101776.81;4947747;28;20393;-71
2022/06/16 05:43:30;;;;;;;6.38;2.90;;;;;;;16.96;56.58;101775.47;4948321;28;20070;-71
2022/06/16 05:46:21;;;;;;;5.82;3.40;;;;;;;17.21;55.69;101770.03;4932562;28;20086;-71
2022/06/16 05:48:55;;;;;;;7.25;3.17;;;;;;;17.39;56.95;101774.97;4961723;28;20431;-71
2022/06/16 05:51:23;;;;;;;7.90;3.60;;;;;;;17.62;55.88;101770.47;4963090;28;20078;-71
2022/06/16 05:54:00;;;;;;;8.32;2.80;;;;;;;17.87;54.10;101776.31;4931222;28;20038;-71
2022/06/16 05:56:29;;;;;;;9.70;3.00;;;;;;;17.97;53.66;101777.84;4948318;28;20023;-71
2022/06/16 05:58:56;;;;;;;11.10;3.00;;;;;;;17.93;52.91;101769.53;4929703;28;20413;-71
2022/06/16 06:01:23;;;;;;;8.82;3.53;;;;;;;18.09;52.92;101774.59;4947220;28;20031;-71
2022/06/16 06:03:54;;;;;;;6.55;2.50;;;;;;;18.33;52.15;101787.59;4949157;28;20110;-71
2022/06/16 06:06:20;;;;;;;6.25;3.05;;;;;;;18.47;50.92;101778.88;4930932;29;20082;-71
2022/06/16 06:17:10;;;;;;;4.97;2.28;;;;;;;19.45;49.14;101780.03;4944295;28;20402;-71
2022/06/16 06:19:36;;;;;;;7.38;2.78;;;;;;;19.58;47.78;101778.53;4960188;28;20094;-71
2022/06/16 06:22:09;;;;;;;5.53;2.25;;;;;;;19.77;46.90;101779.69;4943712;28;20035;-71
2022/06/16 06:24:41;;;;;;;5.22;2.30;;;;;;;19.73;47.12;101786.34;4945727;28;20038;-71
2022/06/16 06:27:36;;;;;;;7.00;2.42;;;;;;;19.75;46.87;101790.41;4940904;28;20422;-71
2022/06/16 06:30:09;;;;;;;8.52;2.42;;;;;;;20.03;46.46;101800.88;4959120;28;20035;-71
2022/06/16 06:32:35;;;;;;;6.30;2.97;;;;;;;20.22;45.25;101801.97;4942812;28;20027;-71
2022/06/16 06:35:01;;;;;;;5.47;2.92;;;;;;;20.64;45.04;101804.59;4946669;28;20027;-71
2022/06/16 06:37:27;;;;;;;6.32;2.72;;;;;;;20.68;44.83;101805.84;4947977;28;20410;-71
2022/06/16 06:39:53;;;;;;;7.97;2.85;;;;;;;20.87;44.52;101809.53;4947327;28;20038;-70
2022/06/16 06:42:20;;;;;;;5.72;2.40;;;;;;;20.93;43.62;101813.19;4931787;28;20532;-71
2022/06/16 06:44:46;;;;;;;9.85;2.40;;;;;;;21.19;43.93;101812.38;4949403;28;20023;-71
2022/06/16 06:47:21;;;;;;;15.57;7.00;;;;;;;21.32;42.70;101814.22;4946807;28;20031;-71
2022/06/16 06:49:47;;;;;;;7.68;2.97;;;;;;;21.49;42.55;101818.13;4962864;28;20039;-71
2022/06/16 06:52:13;;;;;;;6.88;2.25;;;;;;;21.74;42.37;101818.28;4949435;28;20101;-71
2022/06/16 06:54:39;;;;;;;6.50;2.28;;;;;;;21.94;41.76;101818.25;4947144;28;20401;-71
2022/06/16 06:57:05;;;;;;;5.65;2.35;;;;;;;22.48;40.57;101823.38;4944624;28;20043;-71
2022/06/16 06:59:30;;;;;;;7.32;1.98;;;;;;;22.73;39.51;101824.25;4946955;28;20062;-70
2022/06/16 07:01:56;;;;;;;4.90;2.22;;;;;;;22.83;39.37;101828.25;4947721;28;20139;-70
2022/06/16 07:04:21;;;;;;;6.22;1.73;;;;;;;23.28;39.23;101830.81;4951636;28;20039;-70
2022/06/16 07:06:48;;;;;;;4.43;1.83;;;;;;;23.26;37.51;101833.69;4947049;28;20335;-70
2022/06/16 07:09:17;;;;;;;5.60;2.40;;;;;;;23.74;37.06;101834.91;4947173;28;20035;-70
2022/06/16 07:11:43;;;;;;;5.35;2.03;;;;;;;23.71;37.11;101838.81;4947455;28;20040;-70
2022/06/16 07:14:09;;;;;;;7.32;1.90;;;;;;;23.64;36.53;101840.69;4943784;28;20027;-70
2022/06/16 07:16:36;;;;;;;9.73;1.90;;;;;;;23.79;36.75;101837.75;4945639;28;20043;-70
2022/06/16 07:19:01;;;;;;;4.50;1.70;;;;;;;24.00;37.12;101841.00;4950413;28;20118;-70
2022/06/16 07:21:27;;;;;;;4.70;1.52;;;;;;;24.37;36.25;101831.16;4947918;28;20163;-70
2022/06/16 07:23:54;;;;;;;4.93;1.77;;;;;;;24.41;35.67;101836.81;4949202;28;20039;-70
2022/06/16 07:26:19;;;;;;;7.93;1.83;;;;;;;24.11;35.36;101832.31;4948077;28;20061;-70
2022/06/16 07:28:47;;;;;;;8.18;2.22;;;;;;;24.09;35.57;101848.41;4947139;28;20063;-70
2022/06/16 07:31:13;;;;;;;5.63;1.83;;;;;;;24.38;35.79;101850.53;4946926;28;20050;-70
2022/06/16 07:33:38;;;;;;;6.05;1.50;;;;;;;24.31;34.69;101855.09;4948304;28;20023;-70
2022/06/16 07:36:04;;;;;;;4.40;1.38;;;;;;;24.19;35.84;101855.03;4947328;28;20561;-70
2022/06/16 07:38:29;;;;;;;5.47;1.70;;;;;;;24.55;34.91;101848.91;4930122;28;20034;-70
2022/06/16 07:41:31;;;;;;;5.55;1.67;;;;;;;25.01;35.11;101843.97;4946902;28;20031;-71
2022/06/16 07:43:41;;;;;;;6.38;1.50;;;;;;;24.86;34.35;101853.19;4943305;28;20047;-70
2022/06/16 07:46:06;;;;;;;6.43;1.42;;;;;;;24.86;35.86;101858.47;4947428;28;20038;-70
2022/06/16 07:48:32;;;;;;;4.50;1.77;;;;;;;24.62;34.34;101860.25;4946993;28;20043;-70
2022/06/16 07:50:57;;;;;;;5.72;1.83;;;;;;;24.69;35.07;101862.78;4946947;28;20044;-70
2022/06/16 07:53:23;;;;;;;6.32;1.50;;;;;;;24.86;34.89;101861.13;4945764;28;20553;-71
2022/06/16 07:55:48;;;;;;;6.95;1.95;;;;;;;25.03;34.99;101866.59;4946434;28;20035;-71
2022/06/16 07:58:13;;;;;;;6.95;1.42;;;;;;;25.82;33.60;101870.84;4946349;28;20081;-70
2022/06/16 08:00:39;;;;;;;3.33;1.77;;;;;;;26.11;33.15;101863.00;4945063;28;20134;-70
2022/06/16 08:03:04;;;;;;;4.90;1.50;;;;;;;25.99;33.07;101863.81;4946494;28;20145;-71
2022/06/16 08:05:30;;;;;;;4.10;1.60;;;;;;;26.21;33.06;101871.16;4944308;28;20035;-71
2022/06/16 08:07:56;;;;;;;3.60;1.10;;;;;;;25.65;33.57;101873.38;4946723;28;20042;-71
2022/06/16 08:10:26;;;;;;;3.45;1.27;;;;;;;25.96;33.43;101864.28;4944453;28;20042;-71
2022/06/16 08:12:52;;;;;;;3.70;1.40;;;;;;;25.30;33.49;101882.13;4948086;28;20039;-71
2022/06/16 08:15:17;;;;;;;4.57;1.27;;;;;;;25.27;32.81;101879.94;4944461;28;20042;-70
2022/06/16 08:17:46;;;;;;;5.18;1.30;;;;;;;25.36;33.72;101889.19;4945253;28;20074;-71
2022/06/16 08:20:12;;;;;;;2.63;1.40;;;;;;;25.93;32.58;101883.31;4943358;28;20043;-71
2022/06/16 08:22:38;;;;;;;2.60;1.13;;;;;;;26.35;33.06;101882.31;4944994;28;20074;-71
2022/06/16 08:25:06;;;;;;;3.97;1.50;;;;;;;26.26;32.89;101889.88;4948090;28;20031;-71
2022/06/16 08:27:35;;;;;;;15.82;8.35;;;;;;;26.49;32.95;101880.22;4948643;28;20375;-70
2022/06/16 08:30:02;;;;;;;4.85;1.70;;;;;;;26.44;33.49;101888.88;4942016;28;20053;-70
2022/06/16 08:32:28;;;;;;;3.22;1.45;;;;;;;26.88;33.15;101894.53;4949031;28;20621;-71
2022/06/16 08:34:54;;;;;;;4.57;1.65;;;;;;;27.10;32.99;101901.81;4959976;28;20035;-71
2022/06/16 08:37:21;;;;;;;5.35;1.63;;;;;;;27.02;32.22;101899.56;4945697;28;20058;-71
2022/06/16 08:39:47;;;;;;;3.55;1.48;;;;;;;26.44;32.36;101906.69;4943941;28;20035;-70
2022/06/16 08:42:27;;;;;;;4.82;1.65;;;;;;;25.92;33.01;101908.28;4943417;28;20046;-71
2022/06/16 08:45:05;;;;;;;3.88;1.35;;;;;;;25.75;34.02;101902.84;4949153;28;20043;-71
2022/06/16 08:47:49;;;;;;;6.22;1.35;;;;;;;25.79;33.55;101903.19;4945287;28;20038;-71
2022/06/16 08:50:35;;;;;;;4.53;1.50;;;;;;;25.45;32.79;101909.03;4945576;28;20125;-70
2022/06/16 08:53:14;;;;;;;3.22;1.10;;;;;;;25.94;32.91;101908.06;4946321;28;20218;-71
2022/06/16 08:55:55;;;;;;;3.38;1.35;;;;;;;26.15;32.31;101899.47;4960367;28;20049;-71
2022/06/16 08:58:21;;;;;;;5.47;1.13;;;;;;;26.18;31.79;101908.81;4943463;28;20035;-70
2022/06/16 09:00:51;;;;;;;3.42;1.15;;;;;;;26.12;32.57;101912.41;4943136;28;20083;-71
2022/06/16 09:03:34;;;;;;;2.03;1.20;;;;;;;26.47;31.17;101906.22;4927805;28;20043;-71
2022/06/16 09:06:22;;;;;;;3.88;1.30;;;;;;;26.10;32.38;101901.22;4924617;28;20043;-70
2022/06/16 09:09:03;;;;;;;3.40;1.13;;;;;;;26.60;30.63;101908.66;4945082;28;20130;-70
2022/06/16 09:11:32;;;;;;;7.60;1.20;;;;;;;26.60;30.49;101906.00;4946495;28;20039;-70
2022/06/16 09:14:14;;;;;;;2.63;1.05;;;;;;;26.39;31.43;101908.22;4941168;28;20055;-71
2022/06/16 09:16:47;;;;;;;3.60;1.38;;;;;;;26.33;30.63;101913.66;4942393;28;20061;-71
2022/06/16 09:19:23;;;;;;;3.15;1.15;;;;;;;25.94;31.29;101916.03;4945214;28;20056;-71
2022/06/16 09:21:58;;;;;;;3.65;1.30;;;;;;;25.96;31.38;101928.03;4944295;28;20035;-71
2022/06/16 09:24:40;;;;;;;1.98;0.80;;;;;;;26.02;32.29;101935.06;4943569;28;20048;-70
2022/06/16 09:27:14;;;;;;;1.33;1.00;;;;;;;26.22;31.27;101939.22;4944358;28;20026;-70
2022/06/16 09:29:45;;;;;;;3.13;1.60;;;;;;;26.46;30.12;101933.84;4944433;28;20441;-71
2022/06/16 09:32:34;;;;;;;3.33;1.42;;;;;;;26.45;30.43;101933.06;4944573;28;20521;-71
2022/06/16 09:35:16;;;;;;;5.80;1.40;;;;;;;26.17;30.58;101947.88;4943540;28;20039;-71
2022/06/16 09:37:49;;;;;;;3.30;0.90;;;;;;;26.49;31.92;101946.69;4946371;28;20389;-70
2022/06/16 09:40:26;;;;;;;2.58;0.90;;;;;;;26.46;31.14;101947.94;4950376;28;20038;-71
2022/06/16 09:43:14;;;;;;;2.25;0.80;;;;;;;26.52;30.59;101944.38;4948367;28;20047;-71
2022/06/16 09:45:58;;;;;;;3.47;1.00;;;;;;;26.45;31.75;101954.31;4948430;28;20039;-71
2022/06/16 09:48:32;;;;;;;5.90;1.10;;;;;;;26.83;30.93;101960.94;4948833;28;20031;-71
2022/06/16 09:51:14;;;;;;;6.15;0.90;;;;;;;26.76;31.26;101953.09;4949075;28;20066;-71
2022/06/16 09:53:49;;;;;;;5.55;1.50;;;;;;;26.87;30.94;101964.75;4948700;28;20046;-71
2022/06/16 09:56:23;;;;;;;3.55;1.23;;;;;;;26.77;29.88;101960.03;4951287;28;20035;-70
2022/06/16 09:59:06;;;;;;;4.63;1.10;;;;;;;26.61;31.40;101977.53;4950887;28;20122;-71
2022/06/16 10:01:40;;;;;;;2.42;0.98;;;;;;;26.70;30.32;101982.50;4952584;28;20054;-71
2022/06/16 10:04:07;;;;;;;2.90;0.90;;;;;;;26.60;29.78;101978.59;4952418;28;20066;-71
2022/06/16 10:06:48;;;;;;;4.25;1.08;;;;;;;26.59;31.56;101986.75;4951211;28;20380;-70
2022/06/16 10:09:32;;;;;;;3.05;0.70;;;;;;;26.60;31.19;101978.59;4951724;28;20028;-71
2022/06/16 10:12:23;;;;;;;6.10;1.20;;;;;;;26.40;31.43;101983.44;4952750;28;20039;-71
2022/06/16 10:14:57;;;;;;;2.97;0.82;;;;;;;26.54;31.02;101990.16;4952613;28;20039;-71
2022/06/16 10:17:24;;;;;;;1.92;0.80;;;;;;;26.83;31.83;101984.09;4951800;28;20023;-71
2022/06/16 10:19:51;;;;;;;3.30;1.35;;;;;;;26.87;29.83;101985.22;4954158;28;20451;-71
2022/06/16 10:22:23;;;;;;;4.78;1.30;;;;;;;27.19;31.97;101989.00;4953857;28;20114;-71
2022/06/16 10:24:51;;;;;;;1.88;0.77;;;;;;;27.20;31.31;101989.84;4955809;28;20557;-71
2022/06/16 10:27:18;;;;;;;2.42;1.25;;;;;;;27.45;30.74;101988.69;4951360;28;20093;-71
2022/06/16 10:29:55;;;;;;;7.28;1.70;;;;;;;27.26;30.19;101982.78;4954168;28;20062;-72
2022/06/16 10:32:35;;;;;;;7.35;1.23;;;;;;;27.23;30.37;101977.88;4948754;28;20457;-71
2022/06/16 10:35:01;;;;;;;2.75;0.95;;;;;;;27.23;30.44;101976.03;4953828;28;20046;-71
2022/06/16 10:37:29;;;;;;;6.95;1.48;;;;;;;26.86;29.73;101980.94;4952101;28;20035;-71
2022/06/16 10:40:10;;;;;;;4.38;1.20;;;;;;;26.14;31.93;101982.88;4950984;28;20043;-70
2022/06/16 10:42:41;;;;;;;6.50;1.48;;;;;;;26.37;31.63;101983.91;4952712;28;20043;-71
2022/06/16 10:45:14;;;;;;;4.03;1.00;;;;;;;26.36;31.42;101980.44;4935256;28;20130;-71
2022/06/16 10:48:00;;;;;;;3.17;1.00;;;;;;;26.67;32.65;101972.31;4950690;28;20506;-71
2022/06/16 10:50:43;;;;;;;5.13;1.23;;;;;;;26.62;31.67;101970.38;4931394;29;20421;-71
2022/06/16 10:53:33;;;;;;;2.67;1.10;;;;;;;26.42;32.36;101965.41;4951324;28;20098;-71
2022/06/16 10:56:20;;;;;;;2.45;1.00;;;;;;;26.47;31.88;101951.44;4934965;29;20497;-72
2022/06/16 10:58:59;;;;;;;3.28;1.27;;;;;;;26.63;31.72;101950.69;4959883;28;20063;-71
2022/06/16 11:01:47;;;;;;;2.65;0.90;;;;;;;26.87;31.64;101958.63;4951299;28;20530;-71
2022/06/16 11:04:22;;;;;;;2.67;1.10;;;;;;;26.62;31.05;101965.06;4952339;28;20086;-71
2022/06/16 11:06:53;;;;;;;4.38;1.25;;;;;;;26.67;31.95;101970.47;4949140;28;20043;-72
2022/06/16 11:09:22;;;;;;;6.13;1.00;;;;;;;26.76;31.80;101960.25;4950246;28;20034;-70
2022/06/16 11:11:54;;;;;;;5.85;1.23;;;;;;;26.95;34.12;101964.34;4936468;29;20569;-70
2022/06/16 11:14:40;;;;;;;2.20;1.00;;;;;;;26.45;30.87;101956.97;4945241;28;20519;-69
2022/06/16 11:17:16;;;;;;;6.20;1.15;;;;;;;26.90;31.79;101966.94;4945339;28;20047;-70
2022/06/16 11:19:44;;;;;;;3.20;1.23;;;;;;;26.91;31.92;101981.84;4950884;28;20034;-70
2022/06/16 11:22:31;;;;;;;3.28;1.00;;;;;;;26.86;31.26;101981.75;4956403;28;20039;-70
2022/06/16 11:25:05;;;;;;;4.90;1.55;;;;;;;26.60;31.16;101986.56;4949570;28;20047;-70
2022/06/16 11:27:46;;;;;;;4.47;1.65;;;;;;;26.86;31.42;101972.94;4950469;28;20043;-70
2022/06/16 11:30:34;;;;;;;4.32;1.10;;;;;;;27.12;31.74;101974.22;4946812;28;20027;-70
2022/06/16 11:33:00;;;;;;;3.42;1.05;;;;;;;26.95;31.06;101969.66;4949578;28;20118;-70
2022/06/16 11:35:41;;;;;;;1.85;1.20;;;;;;;26.44;31.87;101973.16;4953372;28;20035;-70
2022/06/16 11:38:31;;;;;;;7.07;1.45;;;;;;;26.46;31.76;101960.44;4947498;28;20030;-70
2022/06/16 11:41:02;;;;;;;2.25;1.20;;;;;;;26.84;31.88;101957.22;4947082;28;20125;-70
2022/06/16 11:43:54;;;;;;;7.55;1.60;;;;;;;26.66;33.21;101954.75;4951274;28;20527;-70
2022/06/16 11:46:36;;;;;;;2.55;1.50;;;;;;;26.51;31.61;101945.41;4950833;28;20035;-70
2022/06/16 11:49:28;;;;;;;2.30;1.17;;;;;;;26.74;32.22;101976.47;4949610;28;20486;-70
2022/06/16 11:52:16;;;;;;;3.20;1.57;;;;;;;26.69;31.20;101980.88;4948952;28;20142;-70
2022/06/16 11:54:59;;;;;;;5.70;1.70;;;;;;;26.30;31.89;101970.75;4948441;28;20466;-72
2022/06/16 11:57:55;;;;;;;2.65;1.23;;;;;;;26.38;31.79;101964.28;4949410;28;20410;-72
2022/06/16 12:00:22;;;;;;;2.97;1.20;;;;;;;26.61;31.32;101958.91;4949726;28;20031;-73
2022/06/16 12:03:12;;;;;;;4.70;1.33;;;;;;;26.79;33.15;101960.59;4949970;28;20043;-73
2022/06/16 12:05:46;;;;;;;5.72;1.42;;;;;;;27.03;31.26;101952.53;4949079;28;20118;-73
2022/06/16 12:08:27;;;;;;;5.18;1.80;;;;;;;27.19;31.44;101951.75;4950291;28;20566;-72